sensor_id;sensor_type;location;lat;lon;timestamp;P1;durP1;ratioP1;P2;durP2;ratioP2
57071;SDS011;42956;51.366;11.298;2023-04-25T00:00:46;5.63;;;4.20;;
57071;SDS011;42956;51.366;11.298;2023-04-25T00:03:14;6.30;;;3.90;;
57071;SDS011;42956;51.366;11.298;2023-04-25T00:05:43;5.60;;;3.63;;
57071;SDS011;42956;51.366;11.298;2023-04-25T00:08:13;4.55;;;3.35;;
57071;SDS011;42956;51.366;11.298;2023-04-25T00:10:40;5.97;;;4.05;;
57071;SDS011;42956;51.366;11.298;2023-04-25T00:13:08;8.23;;;3.70;;
57071;SDS011;42956;51.366;11.298;2023-04-25T00:15:38;7.38;;;4.35;;
57071;SDS011;42956;51.366;11.298;2023-04-25T00:18:08;6.15;;;3.80;;
57071;SDS011;42956;51.366;11.298;2023-04-25T00:20:36;7.57;;;3.63;;
57071;SDS011;42956;51.366;11.298;2023-04-25T00:23:04;4.60;;;3.63;;
57071;SDS011;42956;51.366;11.298;2023-04-25T00:25:33;6.47;;;3.50;;
57071;SDS011;42956;51.366;11.298;2023-04-25T00:28:01;6.15;;;3.88;;
57071;SDS011;42956;51.366;11.298;2023-04-25T00:30:29;4.93;;;3.40;;
57071;SDS011;42956;51.366;11.298;2023-04-25T00:32:57;5.53;;;3.53;;
57071;SDS011;42956;51.366;11.298;2023-04-25T00:35:25;5.15;;;3.35;;
57071;SDS011;42956;51.366;11.298;2023-04-25T00:37:53;6.57;;;4.07;;
57071;SDS011;42956;51.366;11.298;2023-04-25T00:40:21;4.70;;;3.45;;
57071;SDS011;42956;51.366;11.298;2023-04-25T00:42:50;9.75;;;3.92;;
57071;SDS011;42956;51.366;11.298;2023-04-25T00:45:19;4.82;;;3.60;;
57071;SDS011;42956;51.366;11.298;2023-04-25T00:47:47;4.45;;;3.47;;
57071;SDS011;42956;51.366;11.298;2023-04-25T00:50:15;9.18;;;3.75;;
57071;SDS011;42956;51.366;11.298;2023-04-25T00:52:43;4.38;;;2.80;;
57071;SDS011;42956;51.366;11.298;2023-04-25T00:55:12;3.40;;;2.85;;
57071;SDS011;42956;51.366;11.298;2023-04-25T00:57:40;8.27;;;3.28;;
57071;SDS011;42956;51.366;11.298;2023-04-25T01:00:09;4.50;;;3.08;;
57071;SDS011;42956;51.366;11.298;2023-04-25T01:02:37;7.75;;;3.90;;
57071;SDS011;42956;51.366;11.298;2023-04-25T01:05:06;6.22;;;3.15;;
57071;SDS011;42956;51.366;11.298;2023-04-25T01:07:34;5.53;;;3.00;;
57071;SDS011;42956;51.366;11.298;2023-04-25T01:10:02;6.20;;;3.35;;
57071;SDS011;42956;51.366;11.298;2023-04-25T01:12:30;4.88;;;3.40;;
57071;SDS011;42956;51.366;11.298;2023-04-25T01:14:58;4.60;;;3.17;;
57071;SDS011;42956;51.366;11.298;2023-04-25T01:17:27;4.60;;;3.42;;
57071;SDS011;42956;51.366;11.298;2023-04-25T01:19:55;4.13;;;2.80;;
57071;SDS011;42956;51.366;11.298;2023-04-25T01:22:25;6.28;;;3.67;;
57071;SDS011;42956;51.366;11.298;2023-04-25T01:24:52;4.47;;;3.38;;
57071;SDS011;42956;51.366;11.298;2023-04-25T01:27:21;4.65;;;3.05;;
57071;SDS011;42956;51.366;11.298;2023-04-25T01:29:49;6.45;;;3.20;;
57071;SDS011;42956;51.366;11.298;2023-04-25T01:32:17;4.25;;;3.42;;
57071;SDS011;42956;51.366;11.298;2023-04-25T01:34:45;4.47;;;3.03;;
57071;SDS011;42956;51.366;11.298;2023-04-25T01:37:13;5.85;;;3.45;;
57071;SDS011;42956;51.366;11.298;2023-04-25T01:39:42;7.00;;;3.75;;
57071;SDS011;42956;51.366;11.298;2023-04-25T01:42:12;6.38;;;3.80;;
57071;SDS011;42956;51.366;11.298;2023-04-25T01:44:41;5.18;;;2.85;;
57071;SDS011;42956;51.366;11.298;2023-04-25T01:47:09;5.28;;;3.33;;
57071;SDS011;42956;51.366;11.298;2023-04-25T01:49:36;6.80;;;3.55;;
57071;SDS011;42956;51.366;11.298;2023-04-25T01:52:04;7.72;;;3.75;;
57071;SDS011;42956;51.366;11.298;2023-04-25T01:54:32;6.07;;;3.80;;
57071;SDS011;42956;51.366;11.298;2023-04-25T01:57:02;6.57;;;3.10;;
57071;SDS011;42956;51.366;11.298;2023-04-25T01:59:29;5.35;;;2.97;;
57071;SDS011;42956;51.366;11.298;2023-04-25T02:01:57;7.15;;;3.75;;
57071;SDS011;42956;51.366;11.298;2023-04-25T02:04:25;5.57;;;3.65;;
57071;SDS011;42956;51.366;11.298;2023-04-25T02:06:53;6.53;;;3.22;;
57071;SDS011;42956;51.366;11.298;2023-04-25T02:09:21;13.63;;;3.78;;
57071;SDS011;42956;51.366;11.298;2023-04-25T02:11:49;9.75;;;3.88;;
57071;SDS011;42956;51.366;11.298;2023-04-25T02:14:18;8.07;;;3.13;;
57071;SDS011;42956;51.366;11.298;2023-04-25T02:16:46;5.80;;;4.22;;
57071;SDS011;42956;51.366;11.298;2023-04-25T02:19:14;9.35;;;3.67;;
57071;SDS011;42956;51.366;11.298;2023-04-25T02:21:42;6.18;;;4.72;;
57071;SDS011;42956;51.366;11.298;2023-04-25T02:24:10;5.07;;;3.88;;
57071;SDS011;42956;51.366;11.298;2023-04-25T02:26:38;7.30;;;3.80;;
57071;SDS011;42956;51.366;11.298;2023-04-25T02:29:05;10.35;;;4.15;;
57071;SDS011;42956;51.366;11.298;2023-04-25T02:31:35;7.38;;;4.22;;
57071;SDS011;42956;51.366;11.298;2023-04-25T02:34:03;8.23;;;4.20;;
57071;SDS011;42956;51.366;11.298;2023-04-25T02:36:31;9.98;;;4.80;;
57071;SDS011;42956;51.366;11.298;2023-04-25T02:39:00;10.07;;;4.15;;
57071;SDS011;42956;51.366;11.298;2023-04-25T02:41:29;9.20;;;4.20;;
57071;SDS011;42956;51.366;11.298;2023-04-25T02:43:57;12.95;;;4.18;;
57071;SDS011;42956;51.366;11.298;2023-04-25T02:46:25;6.53;;;4.43;;
57071;SDS011;42956;51.366;11.298;2023-04-25T02:49:06;8.18;;;4.63;;
57071;SDS011;42956;51.366;11.298;2023-04-25T02:51:34;10.32;;;4.57;;
57071;SDS011;42956;51.366;11.298;2023-04-25T02:54:02;8.07;;;4.70;;
57071;SDS011;42956;51.366;11.298;2023-04-25T02:56:30;9.55;;;5.38;;
57071;SDS011;42956;51.366;11.298;2023-04-25T02:58:58;12.05;;;4.05;;
57071;SDS011;42956;51.366;11.298;2023-04-25T03:01:26;7.95;;;4.88;;
57071;SDS011;42956;51.366;11.298;2023-04-25T03:03:54;6.65;;;4.10;;
57071;SDS011;42956;51.366;11.298;2023-04-25T03:06:23;9.70;;;5.15;;
57071;SDS011;42956;51.366;11.298;2023-04-25T03:08:51;7.90;;;4.20;;
57071;SDS011;42956;51.366;11.298;2023-04-25T03:11:19;7.43;;;4.95;;
57071;SDS011;42956;51.366;11.298;2023-04-25T03:13:47;9.68;;;4.60;;
57071;SDS011;42956;51.366;11.298;2023-04-25T03:16:15;10.73;;;5.07;;
57071;SDS011;42956;51.366;11.298;2023-04-25T03:18:43;7.65;;;4.53;;
57071;SDS011;42956;51.366;11.298;2023-04-25T03:21:11;8.60;;;5.05;;
57071;SDS011;42956;51.366;11.298;2023-04-25T03:23:40;6.53;;;4.68;;
57071;SDS011;42956;51.366;11.298;2023-04-25T03:26:08;8.95;;;5.10;;
57071;SDS011;42956;51.366;11.298;2023-04-25T03:28:36;9.27;;;4.93;;
57071;SDS011;42956;51.366;11.298;2023-04-25T03:31:04;12.63;;;6.13;;
57071;SDS011;42956;51.366;11.298;2023-04-25T03:33:32;8.85;;;5.57;;
57071;SDS011;42956;51.366;11.298;2023-04-25T03:36:00;8.05;;;5.15;;
57071;SDS011;42956;51.366;11.298;2023-04-25T03:38:28;9.80;;;5.45;;
57071;SDS011;42956;51.366;11.298;2023-04-25T03:40:57;13.65;;;5.95;;
57071;SDS011;42956;51.366;11.298;2023-04-25T03:43:25;8.70;;;5.47;;
57071;SDS011;42956;51.366;11.298;2023-04-25T03:45:53;10.00;;;5.93;;
57071;SDS011;42956;51.366;11.298;2023-04-25T03:48:21;16.40;;;6.57;;
57071;SDS011;42956;51.366;11.298;2023-04-25T03:50:51;14.70;;;6.78;;
57071;SDS011;42956;51.366;11.298;2023-04-25T03:53:19;11.85;;;6.88;;
57071;SDS011;42956;51.366;11.298;2023-04-25T03:55:47;12.77;;;6.97;;
57071;SDS011;42956;51.366;11.298;2023-04-25T03:58:16;9.82;;;6.65;;
57071;SDS011;42956;51.366;11.298;2023-04-25T04:00:44;9.23;;;6.38;;
57071;SDS011;42956;51.366;11.298;2023-04-25T04:03:12;11.95;;;7.10;;
57071;SDS011;42956;51.366;11.298;2023-04-25T04:05:40;16.15;;;7.50;;
57071;SDS011;42956;51.366;11.298;2023-04-25T04:08:08;13.25;;;8.20;;
57071;SDS011;42956;51.366;11.298;2023-04-25T04:10:36;14.93;;;8.10;;
57071;SDS011;42956;51.366;11.298;2023-04-25T04:13:04;14.02;;;8.00;;
57071;SDS011;42956;51.366;11.298;2023-04-25T04:15:33;17.70;;;9.27;;
57071;SDS011;42956;51.366;11.298;2023-04-25T04:18:01;14.77;;;8.20;;
57071;SDS011;42956;51.366;11.298;2023-04-25T04:20:29;18.70;;;8.35;;
57071;SDS011;42956;51.366;11.298;2023-04-25T04:22:57;16.00;;;8.43;;
57071;SDS011;42956;51.366;11.298;2023-04-25T04:25:25;13.88;;;8.68;;
57071;SDS011;42956;51.366;11.298;2023-04-25T04:27:53;18.67;;;7.75;;
57071;SDS011;42956;51.366;11.298;2023-04-25T04:30:22;15.13;;;8.85;;
57071;SDS011;42956;51.366;11.298;2023-04-25T04:32:52;16.75;;;9.23;;
57071;SDS011;42956;51.366;11.298;2023-04-25T04:35:20;12.10;;;7.97;;
57071;SDS011;42956;51.366;11.298;2023-04-25T04:37:48;13.07;;;8.63;;
57071;SDS011;42956;51.366;11.298;2023-04-25T04:40:16;15.73;;;8.63;;
57071;SDS011;42956;51.366;11.298;2023-04-25T04:42:44;18.15;;;9.20;;
57071;SDS011;42956;51.366;11.298;2023-04-25T04:45:12;16.75;;;7.60;;
57071;SDS011;42956;51.366;11.298;2023-04-25T04:47:40;14.77;;;7.57;;
57071;SDS011;42956;51.366;11.298;2023-04-25T04:50:10;16.13;;;7.80;;
57071;SDS011;42956;51.366;11.298;2023-04-25T04:52:38;12.25;;;7.35;;
57071;SDS011;42956;51.366;11.298;2023-04-25T04:55:06;14.98;;;8.38;;
57071;SDS011;42956;51.366;11.298;2023-04-25T04:57:35;12.93;;;7.45;;
57071;SDS011;42956;51.366;11.298;2023-04-25T05:00:03;14.52;;;8.25;;
57071;SDS011;42956;51.366;11.298;2023-04-25T05:02:34;18.27;;;8.25;;
57071;SDS011;42956;51.366;11.298;2023-04-25T05:05:02;21.10;;;9.23;;
57071;SDS011;42956;51.366;11.298;2023-04-25T05:07:31;18.60;;;8.82;;
57071;SDS011;42956;51.366;11.298;2023-04-25T05:09:59;19.02;;;9.02;;
57071;SDS011;42956;51.366;11.298;2023-04-25T05:12:27;23.98;;;10.35;;
57071;SDS011;42956;51.366;11.298;2023-04-25T05:14:55;18.25;;;9.23;;
57071;SDS011;42956;51.366;11.298;2023-04-25T05:17:23;22.98;;;9.55;;
57071;SDS011;42956;51.366;11.298;2023-04-25T05:19:51;21.05;;;9.02;;
57071;SDS011;42956;51.366;11.298;2023-04-25T05:22:19;17.02;;;8.05;;
57071;SDS011;42956;51.366;11.298;2023-04-25T05:24:48;17.73;;;8.93;;
57071;SDS011;42956;51.366;11.298;2023-04-25T05:27:21;18.63;;;8.95;;
57071;SDS011;42956;51.366;11.298;2023-04-25T05:29:49;17.50;;;8.23;;
57071;SDS011;42956;51.366;11.298;2023-04-25T05:32:17;21.38;;;9.65;;
57071;SDS011;42956;51.366;11.298;2023-04-25T05:34:45;21.05;;;7.65;;
57071;SDS011;42956;51.366;11.298;2023-04-25T05:37:13;13.77;;;7.22;;
57071;SDS011;42956;51.366;11.298;2023-04-25T05:39:41;16.58;;;8.10;;
57071;SDS011;42956;51.366;11.298;2023-04-25T05:42:10;18.23;;;8.45;;
57071;SDS011;42956;51.366;11.298;2023-04-25T05:44:38;13.45;;;7.85;;
57071;SDS011;42956;51.366;11.298;2023-04-25T05:47:06;14.35;;;7.57;;
57071;SDS011;42956;51.366;11.298;2023-04-25T05:52:39;18.73;;;7.43;;
57071;SDS011;42956;51.366;11.298;2023-04-25T05:55:07;12.00;;;6.25;;
57071;SDS011;42956;51.366;11.298;2023-04-25T05:57:36;20.98;;;7.57;;
57071;SDS011;42956;51.366;11.298;2023-04-25T06:00:08;16.70;;;7.43;;
57071;SDS011;42956;51.366;11.298;2023-04-25T06:02:36;20.08;;;7.15;;
57071;SDS011;42956;51.366;11.298;2023-04-25T06:05:04;15.80;;;6.50;;
57071;SDS011;42956;51.366;11.298;2023-04-25T06:07:32;13.35;;;6.60;;
57071;SDS011;42956;51.366;11.298;2023-04-25T06:10:00;14.80;;;5.85;;
57071;SDS011;42956;51.366;11.298;2023-04-25T06:12:28;12.27;;;5.70;;
57071;SDS011;42956;51.366;11.298;2023-04-25T06:14:57;9.32;;;5.55;;
57071;SDS011;42956;51.366;11.298;2023-04-25T06:17:32;16.67;;;6.13;;
57071;SDS011;42956;51.366;11.298;2023-04-25T06:20:00;12.65;;;6.20;;
57071;SDS011;42956;51.366;11.298;2023-04-25T06:22:31;14.25;;;6.00;;
57071;SDS011;42956;51.366;11.298;2023-04-25T06:24:59;11.90;;;5.63;;
57071;SDS011;42956;51.366;11.298;2023-04-25T06:27:29;16.17;;;6.97;;
57071;SDS011;42956;51.366;11.298;2023-04-25T06:29:59;14.32;;;6.93;;
57071;SDS011;42956;51.366;11.298;2023-04-25T06:32:26;16.35;;;6.90;;
57071;SDS011;42956;51.366;11.298;2023-04-25T06:34:56;9.82;;;6.95;;
57071;SDS011;42956;51.366;11.298;2023-04-25T06:37:24;10.73;;;6.63;;
57071;SDS011;42956;51.366;11.298;2023-04-25T06:39:52;18.25;;;7.05;;
57071;SDS011;42956;51.366;11.298;2023-04-25T06:42:20;11.43;;;5.53;;
57071;SDS011;42956;51.366;11.298;2023-04-25T06:44:48;8.88;;;6.10;;
57071;SDS011;42956;51.366;11.298;2023-04-25T06:47:17;11.90;;;6.72;;
57071;SDS011;42956;51.366;11.298;2023-04-25T06:49:45;10.07;;;6.32;;
57071;SDS011;42956;51.366;11.298;2023-04-25T06:52:13;13.57;;;6.45;;
57071;SDS011;42956;51.366;11.298;2023-04-25T06:54:41;8.30;;;5.97;;
57071;SDS011;42956;51.366;11.298;2023-04-25T06:57:09;10.40;;;5.75;;
57071;SDS011;42956;51.366;11.298;2023-04-25T06:59:37;7.72;;;5.72;;
57071;SDS011;42956;51.366;11.298;2023-04-25T07:02:05;10.27;;;5.70;;
57071;SDS011;42956;51.366;11.298;2023-04-25T07:04:34;11.07;;;5.65;;
57071;SDS011;42956;51.366;11.298;2023-04-25T07:07:03;11.15;;;5.50;;
57071;SDS011;42956;51.366;11.298;2023-04-25T07:09:31;7.53;;;4.75;;
57071;SDS011;42956;51.366;11.298;2023-04-25T07:12:00;8.02;;;4.70;;
57071;SDS011;42956;51.366;11.298;2023-04-25T07:14:29;7.15;;;5.40;;
57071;SDS011;42956;51.366;11.298;2023-04-25T07:16:57;7.85;;;4.80;;
57071;SDS011;42956;51.366;11.298;2023-04-25T07:19:27;5.65;;;4.50;;
57071;SDS011;42956;51.366;11.298;2023-04-25T07:21:57;5.43;;;4.15;;
57071;SDS011;42956;51.366;11.298;2023-04-25T07:24:25;7.43;;;4.85;;
57071;SDS011;42956;51.366;11.298;2023-04-25T07:26:53;7.35;;;4.85;;
57071;SDS011;42956;51.366;11.298;2023-04-25T07:29:21;7.15;;;4.28;;
57071;SDS011;42956;51.366;11.298;2023-04-25T07:31:48;13.15;;;4.57;;
57071;SDS011;42956;51.366;11.298;2023-04-25T07:34:16;5.95;;;4.38;;
57071;SDS011;42956;51.366;11.298;2023-04-25T07:36:44;5.78;;;3.58;;
57071;SDS011;42956;51.366;11.298;2023-04-25T07:39:14;12.68;;;3.83;;
57071;SDS011;42956;51.366;11.298;2023-04-25T07:41:42;6.35;;;3.25;;
57071;SDS011;42956;51.366;11.298;2023-04-25T07:44:10;4.38;;;3.90;;
57071;SDS011;42956;51.366;11.298;2023-04-25T07:46:38;7.05;;;4.43;;
57071;SDS011;42956;51.366;11.298;2023-04-25T07:49:06;6.55;;;3.97;;
57071;SDS011;42956;51.366;11.298;2023-04-25T07:51:33;9.73;;;4.53;;
57071;SDS011;42956;51.366;11.298;2023-04-25T07:54:04;7.82;;;4.25;;
57071;SDS011;42956;51.366;11.298;2023-04-25T07:56:34;5.82;;;3.38;;
57071;SDS011;42956;51.366;11.298;2023-04-25T07:59:17;8.13;;;4.38;;
57071;SDS011;42956;51.366;11.298;2023-04-25T08:01:45;6.32;;;3.53;;
57071;SDS011;42956;51.366;11.298;2023-04-25T08:04:15;7.38;;;4.43;;
57071;SDS011;42956;51.366;11.298;2023-04-25T08:06:43;6.82;;;3.65;;
57071;SDS011;42956;51.366;11.298;2023-04-25T08:09:12;7.45;;;4.30;;
57071;SDS011;42956;51.366;11.298;2023-04-25T08:11:41;7.82;;;4.07;;
57071;SDS011;42956;51.366;11.298;2023-04-25T08:14:09;7.13;;;4.75;;
57071;SDS011;42956;51.366;11.298;2023-04-25T08:16:38;10.73;;;3.92;;
57071;SDS011;42956;51.366;11.298;2023-04-25T08:19:06;6.72;;;4.20;;
57071;SDS011;42956;51.366;11.298;2023-04-25T08:21:33;9.13;;;3.65;;
57071;SDS011;42956;51.366;11.298;2023-04-25T08:24:03;6.00;;;3.97;;
57071;SDS011;42956;51.366;11.298;2023-04-25T08:26:31;5.68;;;4.05;;
57071;SDS011;42956;51.366;11.298;2023-04-25T08:29:00;6.25;;;3.40;;
57071;SDS011;42956;51.366;11.298;2023-04-25T08:31:28;7.28;;;4.05;;
57071;SDS011;42956;51.366;11.298;2023-04-25T08:33:56;4.95;;;3.05;;
57071;SDS011;42956;51.366;11.298;2023-04-25T08:36:25;7.78;;;4.68;;
57071;SDS011;42956;51.366;11.298;2023-04-25T08:39:05;11.45;;;4.88;;
57071;SDS011;42956;51.366;11.298;2023-04-25T08:41:33;8.98;;;4.72;;
57071;SDS011;42956;51.366;11.298;2023-04-25T08:44:03;7.90;;;5.15;;
57071;SDS011;42956;51.366;11.298;2023-04-25T08:46:31;7.30;;;4.00;;
57071;SDS011;42956;51.366;11.298;2023-04-25T08:49:00;7.03;;;3.28;;
57071;SDS011;42956;51.366;11.298;2023-04-25T08:51:30;5.55;;;3.63;;
57071;SDS011;42956;51.366;11.298;2023-04-25T08:54:00;8.63;;;3.83;;
57071;SDS011;42956;51.366;11.298;2023-04-25T08:56:38;6.72;;;2.88;;
57071;SDS011;42956;51.366;11.298;2023-04-25T08:59:10;6.97;;;3.58;;
57071;SDS011;42956;51.366;11.298;2023-04-25T09:01:38;3.92;;;2.35;;
57071;SDS011;42956;51.366;11.298;2023-04-25T09:04:06;7.82;;;2.92;;
57071;SDS011;42956;51.366;11.298;2023-04-25T09:06:34;6.07;;;2.67;;
57071;SDS011;42956;51.366;11.298;2023-04-25T09:09:03;16.40;;;3.33;;
57071;SDS011;42956;51.366;11.298;2023-04-25T09:11:32;8.73;;;3.38;;
57071;SDS011;42956;51.366;11.298;2023-04-25T09:14:12;9.38;;;2.97;;
57071;SDS011;42956;51.366;11.298;2023-04-25T09:16:59;13.18;;;4.05;;
57071;SDS011;42956;51.366;11.298;2023-04-25T09:19:27;8.43;;;2.22;;
57071;SDS011;42956;51.366;11.298;2023-04-25T09:22:06;10.93;;;3.78;;
57071;SDS011;42956;51.366;11.298;2023-04-25T09:24:35;8.13;;;2.38;;
57071;SDS011;42956;51.366;11.298;2023-04-25T09:27:04;8.88;;;2.53;;
57071;SDS011;42956;51.366;11.298;2023-04-25T09:29:34;9.30;;;2.67;;
57071;SDS011;42956;51.366;11.298;2023-04-25T09:32:11;9.05;;;2.38;;
57071;SDS011;42956;51.366;11.298;2023-04-25T09:34:40;11.93;;;3.22;;
57071;SDS011;42956;51.366;11.298;2023-04-25T09:37:09;8.05;;;2.67;;
57071;SDS011;42956;51.366;11.298;2023-04-25T09:39:38;6.68;;;2.75;;
57071;SDS011;42956;51.366;11.298;2023-04-25T09:42:06;6.53;;;2.40;;
57071;SDS011;42956;51.366;11.298;2023-04-25T09:44:35;11.05;;;3.60;;
57071;SDS011;42956;51.366;11.298;2023-04-25T09:47:03;14.00;;;3.28;;
57071;SDS011;42956;51.366;11.298;2023-04-25T09:49:31;12.32;;;2.85;;
57071;SDS011;42956;51.366;11.298;2023-04-25T09:51:59;6.00;;;2.72;;
57071;SDS011;42956;51.366;11.298;2023-04-25T09:54:27;12.60;;;3.22;;
57071;SDS011;42956;51.366;11.298;2023-04-25T09:56:55;13.70;;;3.08;;
57071;SDS011;42956;51.366;11.298;2023-04-25T09:59:23;13.23;;;3.50;;
57071;SDS011;42956;51.366;11.298;2023-04-25T10:01:52;16.27;;;3.75;;
57071;SDS011;42956;51.366;11.298;2023-04-25T10:04:22;12.07;;;3.92;;
57071;SDS011;42956;51.366;11.298;2023-04-25T10:06:51;12.98;;;3.28;;
57071;SDS011;42956;51.366;11.298;2023-04-25T10:09:20;10.20;;;3.92;;
57071;SDS011;42956;51.366;11.298;2023-04-25T10:11:48;12.23;;;4.18;;
57071;SDS011;42956;51.366;11.298;2023-04-25T10:14:17;9.77;;;3.35;;
57071;SDS011;42956;51.366;11.298;2023-04-25T10:16:46;15.85;;;3.83;;
57071;SDS011;42956;51.366;11.298;2023-04-25T10:19:15;8.85;;;2.65;;
57071;SDS011;42956;51.366;11.298;2023-04-25T10:21:44;13.82;;;2.95;;
57071;SDS011;42956;51.366;11.298;2023-04-25T10:24:13;10.75;;;3.88;;
57071;SDS011;42956;51.366;11.298;2023-04-25T10:26:41;15.05;;;2.50;;
57071;SDS011;42956;51.366;11.298;2023-04-25T10:29:10;8.40;;;2.80;;
57071;SDS011;42956;51.366;11.298;2023-04-25T10:31:44;9.10;;;3.13;;
57071;SDS011;42956;51.366;11.298;2023-04-25T10:34:12;13.18;;;3.30;;
57071;SDS011;42956;51.366;11.298;2023-04-25T10:36:41;15.38;;;3.67;;
57071;SDS011;42956;51.366;11.298;2023-04-25T10:39:09;9.52;;;3.10;;
57071;SDS011;42956;51.366;11.298;2023-04-25T10:41:46;11.90;;;3.40;;
57071;SDS011;42956;51.366;11.298;2023-04-25T10:44:15;7.75;;;3.30;;
57071;SDS011;42956;51.366;11.298;2023-04-25T10:46:44;12.30;;;2.95;;
57071;SDS011;42956;51.366;11.298;2023-04-25T10:49:27;11.70;;;2.38;;
57071;SDS011;42956;51.366;11.298;2023-04-25T10:54:24;9.45;;;3.60;;
57071;SDS011;42956;51.366;11.298;2023-04-25T10:57:01;5.72;;;2.42;;
57071;SDS011;42956;51.366;11.298;2023-04-25T10:59:29;7.65;;;2.70;;
57071;SDS011;42956;51.366;11.298;2023-04-25T11:01:58;11.35;;;2.90;;
57071;SDS011;42956;51.366;11.298;2023-04-25T11:04:28;8.40;;;2.70;;
57071;SDS011;42956;51.366;11.298;2023-04-25T11:07:02;7.57;;;2.67;;
57071;SDS011;42956;51.366;11.298;2023-04-25T11:09:34;7.25;;;2.33;;
57071;SDS011;42956;51.366;11.298;2023-04-25T11:12:02;8.75;;;2.67;;
57071;SDS011;42956;51.366;11.298;2023-04-25T11:14:31;7.30;;;2.53;;
57071;SDS011;42956;51.366;11.298;2023-04-25T11:16:59;8.40;;;2.67;;
57071;SDS011;42956;51.366;11.298;2023-04-25T11:19:27;4.57;;;1.77;;
57071;SDS011;42956;51.366;11.298;2023-04-25T11:21:55;8.05;;;1.95;;
57071;SDS011;42956;51.366;11.298;2023-04-25T11:24:25;10.27;;;2.75;;
57071;SDS011;42956;51.366;11.298;2023-04-25T11:26:54;6.35;;;2.15;;
57071;SDS011;42956;51.366;11.298;2023-04-25T11:29:22;5.60;;;2.30;;
57071;SDS011;42956;51.366;11.298;2023-04-25T11:31:50;7.85;;;2.10;;
57071;SDS011;42956;51.366;11.298;2023-04-25T11:34:18;9.50;;;2.72;;
57071;SDS011;42956;51.366;11.298;2023-04-25T11:36:46;5.70;;;1.63;;
57071;SDS011;42956;51.366;11.298;2023-04-25T11:39:14;6.88;;;1.80;;
57071;SDS011;42956;51.366;11.298;2023-04-25T11:41:42;4.55;;;1.80;;
57071;SDS011;42956;51.366;11.298;2023-04-25T11:44:13;6.10;;;2.15;;
57071;SDS011;42956;51.366;11.298;2023-04-25T11:46:43;9.90;;;2.97;;
57071;SDS011;42956;51.366;11.298;2023-04-25T11:49:11;10.70;;;2.30;;
57071;SDS011;42956;51.366;11.298;2023-04-25T11:51:38;8.00;;;2.25;;
57071;SDS011;42956;51.366;11.298;2023-04-25T11:54:07;10.80;;;1.90;;
57071;SDS011;42956;51.366;11.298;2023-04-25T11:56:35;14.23;;;3.03;;
57071;SDS011;42956;51.366;11.298;2023-04-25T11:59:03;8.82;;;2.60;;
57071;SDS011;42956;51.366;11.298;2023-04-25T12:01:35;10.50;;;2.78;;
57071;SDS011;42956;51.366;11.298;2023-04-25T12:04:10;13.68;;;3.03;;
57071;SDS011;42956;51.366;11.298;2023-04-25T12:06:38;6.85;;;2.22;;
57071;SDS011;42956;51.366;11.298;2023-04-25T12:09:07;5.80;;;1.83;;
57071;SDS011;42956;51.366;11.298;2023-04-25T12:11:40;6.75;;;2.95;;
57071;SDS011;42956;51.366;11.298;2023-04-25T12:14:08;9.75;;;2.38;;
57071;SDS011;42956;51.366;11.298;2023-04-25T12:16:42;9.65;;;2.13;;
57071;SDS011;42956;51.366;11.298;2023-04-25T12:21:38;12.57;;;2.63;;
57071;SDS011;42956;51.366;11.298;2023-04-25T12:24:24;7.95;;;2.20;;
57071;SDS011;42956;51.366;11.298;2023-04-25T12:26:53;2.45;;;1.38;;
57071;SDS011;42956;51.366;11.298;2023-04-25T12:29:22;9.70;;;1.98;;
57071;SDS011;42956;51.366;11.298;2023-04-25T12:31:54;4.50;;;1.98;;
57071;SDS011;42956;51.366;11.298;2023-04-25T12:34:23;12.75;;;2.70;;
57071;SDS011;42956;51.366;11.298;2023-04-25T12:36:51;10.75;;;1.90;;
57071;SDS011;42956;51.366;11.298;2023-04-25T12:39:20;6.82;;;1.80;;
57071;SDS011;42956;51.366;11.298;2023-04-25T12:41:49;4.57;;;1.58;;
57071;SDS011;42956;51.366;11.298;2023-04-25T12:44:17;6.60;;;1.70;;
57071;SDS011;42956;51.366;11.298;2023-04-25T12:46:45;6.95;;;2.03;;
57071;SDS011;42956;51.366;11.298;2023-04-25T12:49:14;8.77;;;2.38;;
57071;SDS011;42956;51.366;11.298;2023-04-25T12:51:45;6.87;;;2.03;;
57071;SDS011;42956;51.366;11.298;2023-04-25T12:54:13;7.75;;;2.45;;
57071;SDS011;42956;51.366;11.298;2023-04-25T12:56:41;5.60;;;1.60;;
57071;SDS011;42956;51.366;11.298;2023-04-25T12:59:09;5.45;;;2.08;;
57071;SDS011;42956;51.366;11.298;2023-04-25T13:01:37;7.28;;;2.55;;
57071;SDS011;42956;51.366;11.298;2023-04-25T13:04:06;7.72;;;1.85;;
57071;SDS011;42956;51.366;11.298;2023-04-25T13:06:35;12.95;;;1.85;;
57071;SDS011;42956;51.366;11.298;2023-04-25T13:09:03;13.60;;;2.70;;
57071;SDS011;42956;51.366;11.298;2023-04-25T13:11:31;9.13;;;2.75;;
57071;SDS011;42956;51.366;11.298;2023-04-25T13:13:59;4.10;;;2.17;;
57071;SDS011;42956;51.366;11.298;2023-04-25T13:16:27;6.55;;;2.20;;
57071;SDS011;42956;51.366;11.298;2023-04-25T13:18:55;5.97;;;2.05;;
57071;SDS011;42956;51.366;11.298;2023-04-25T13:21:23;7.47;;;2.55;;
57071;SDS011;42956;51.366;11.298;2023-04-25T13:23:53;7.88;;;1.92;;
57071;SDS011;42956;51.366;11.298;2023-04-25T13:26:21;10.48;;;2.00;;
57071;SDS011;42956;51.366;11.298;2023-04-25T13:28:49;4.00;;;1.90;;
57071;SDS011;42956;51.366;11.298;2023-04-25T13:31:17;8.43;;;2.50;;
57071;SDS011;42956;51.366;11.298;2023-04-25T13:33:46;10.07;;;2.47;;
57071;SDS011;42956;51.366;11.298;2023-04-25T13:36:14;6.93;;;2.10;;
57071;SDS011;42956;51.366;11.298;2023-04-25T13:38:42;5.40;;;1.98;;
57071;SDS011;42956;51.366;11.298;2023-04-25T13:41:15;5.13;;;2.28;;
57071;SDS011;42956;51.366;11.298;2023-04-25T13:43:46;8.45;;;2.38;;
57071;SDS011;42956;51.366;11.298;2023-04-25T13:46:15;3.92;;;1.63;;
57071;SDS011;42956;51.366;11.298;2023-04-25T13:48:46;8.93;;;2.60;;
57071;SDS011;42956;51.366;11.298;2023-04-25T13:51:15;9.23;;;3.22;;
57071;SDS011;42956;51.366;11.298;2023-04-25T13:53:44;9.50;;;4.03;;
57071;SDS011;42956;51.366;11.298;2023-04-25T13:56:12;31.67;;;16.25;;
57071;SDS011;42956;51.366;11.298;2023-04-25T13:58:41;21.50;;;9.90;;
57071;SDS011;42956;51.366;11.298;2023-04-25T14:01:09;15.60;;;5.68;;
57071;SDS011;42956;51.366;11.298;2023-04-25T14:03:37;6.45;;;2.80;;
57071;SDS011;42956;51.366;11.298;2023-04-25T14:06:06;7.82;;;2.70;;
57071;SDS011;42956;51.366;11.298;2023-04-25T14:08:35;11.45;;;2.78;;
57071;SDS011;42956;51.366;11.298;2023-04-25T14:11:03;7.35;;;2.50;;
57071;SDS011;42956;51.366;11.298;2023-04-25T14:13:31;6.47;;;2.28;;
57071;SDS011;42956;51.366;11.298;2023-04-25T14:16:01;10.57;;;2.65;;
57071;SDS011;42956;51.366;11.298;2023-04-25T14:18:28;6.70;;;2.28;;
57071;SDS011;42956;51.366;11.298;2023-04-25T14:20:56;12.57;;;2.88;;
57071;SDS011;42956;51.366;11.298;2023-04-25T14:23:24;9.07;;;2.45;;
57071;SDS011;42956;51.366;11.298;2023-04-25T14:25:52;10.20;;;4.15;;
57071;SDS011;42956;51.366;11.298;2023-04-25T14:28:20;12.23;;;4.57;;
57071;SDS011;42956;51.366;11.298;2023-04-25T14:30:48;13.80;;;2.42;;
57071;SDS011;42956;51.366;11.298;2023-04-25T14:33:17;10.57;;;2.53;;
57071;SDS011;42956;51.366;11.298;2023-04-25T14:35:44;5.00;;;2.40;;
57071;SDS011;42956;51.366;11.298;2023-04-25T14:38:12;5.35;;;2.30;;
57071;SDS011;42956;51.366;11.298;2023-04-25T14:40:41;4.05;;;2.33;;
57071;SDS011;42956;51.366;11.298;2023-04-25T14:43:09;7.15;;;2.50;;
57071;SDS011;42956;51.366;11.298;2023-04-25T14:45:37;5.63;;;1.95;;